sensor_id;sensor_type;location;lat;lon;timestamp;temperature;humidity
52739;DHT22;52466;40.122;18.318;2022-09-29T00:00:01;18.40;83.70
52739;DHT22;52466;40.122;18.318;2022-09-29T00:03:08;18.50;83.20
52739;DHT22;52466;40.122;18.318;2022-09-29T00:06:17;18.40;83.30
52739;DHT22;52466;40.122;18.318;2022-09-29T00:09:25;18.50;83.10
52739;DHT22;52466;40.122;18.318;2022-09-29T00:12:33;18.40;83.40
52739;DHT22;52466;40.122;18.318;2022-09-29T00:15:41;18.10;83.60
52739;DHT22;52466;40.122;18.318;2022-09-29T00:18:49;18.00;84.30
52739;DHT22;52466;40.122;18.318;2022-09-29T00:21:56;17.90;84.80
52739;DHT22;52466;40.122;18.318;2022-09-29T00:25:04;18.10;84.10
52739;DHT22;52466;40.122;18.318;2022-09-29T00:28:12;18.20;83.60
52739;DHT22;52466;40.122;18.318;2022-09-29T00:31:20;18.20;83.60
52739;DHT22;52466;40.122;18.318;2022-09-29T00:34:28;18.20;83.20
52739;DHT22;52466;40.122;18.318;2022-09-29T00:37:36;18.20;83.90
52739;DHT22;52466;40.122;18.318;2022-09-29T00:40:43;18.00;84.80
52739;DHT22;52466;40.122;18.318;2022-09-29T00:44:00;18.00;84.70
52739;DHT22;52466;40.122;18.318;2022-09-29T00:47:12;18.10;84.30
52739;DHT22;52466;40.122;18.318;2022-09-29T00:50:44;18.20;83.90
52739;DHT22;52466;40.122;18.318;2022-09-29T00:53:53;18.50;83.40
52739;DHT22;52466;40.122;18.318;2022-09-29T00:57:01;18.20;84.10
52739;DHT22;52466;40.122;18.318;2022-09-29T01:00:12;18.40;83.90
52739;DHT22;52466;40.122;18.318;2022-09-29T01:03:23;18.40;84.10
52739;DHT22;52466;40.122;18.318;2022-09-29T01:06:39;18.50;84.50
52739;DHT22;52466;40.122;18.318;2022-09-29T01:09:49;18.30;84.40
52739;DHT22;52466;40.122;18.318;2022-09-29T01:12:58;18.10;84.80
52739;DHT22;52466;40.122;18.318;2022-09-29T01:16:07;18.00;84.90
52739;DHT22;52466;40.122;18.318;2022-09-29T01:20:08;18.10;85.30
52739;DHT22;52466;40.122;18.318;2022-09-29T01:23:32;18.10;85.60
52739;DHT22;52466;40.122;18.318;2022-09-29T01:30:17;17.80;86.10
52739;DHT22;52466;40.122;18.318;2022-09-29T01:37:21;18.50;84.30
52739;DHT22;52466;40.122;18.318;2022-09-29T01:44:24;18.10;86.20
52739;DHT22;52466;40.122;18.318;2022-09-29T01:47:41;18.10;85.80
52739;DHT22;52466;40.122;18.318;2022-09-29T01:50:54;18.10;85.60
52739;DHT22;52466;40.122;18.318;2022-09-29T01:54:10;18.10;85.50
52739;DHT22;52466;40.122;18.318;2022-09-29T01:57:31;17.90;85.70
52739;DHT22;52466;40.122;18.318;2022-09-29T02:00:46;17.60;86.50
52739;DHT22;52466;40.122;18.318;2022-09-29T02:07:29;17.60;86.60
52739;DHT22;52466;40.122;18.318;2022-09-29T02:10:58;17.70;86.80
52739;DHT22;52466;40.122;18.318;2022-09-29T02:14:11;17.80;86.70
52739;DHT22;52466;40.122;18.318;2022-09-29T02:17:32;17.80;86.30
52739;DHT22;52466;40.122;18.318;2022-09-29T02:20:42;17.70;88.00
52739;DHT22;52466;40.122;18.318;2022-09-29T02:23:51;17.90;87.10
52739;DHT22;52466;40.122;18.318;2022-09-29T02:26:59;18.00;86.90
52739;DHT22;52466;40.122;18.318;2022-09-29T02:30:09;18.10;86.00
52739;DHT22;52466;40.122;18.318;2022-09-29T02:33:22;18.10;85.70
52739;DHT22;52466;40.122;18.318;2022-09-29T03:00:48;17.70;87.00
52739;DHT22;52466;40.122;18.318;2022-09-29T03:03:55;17.90;87.20
52739;DHT22;52466;40.122;18.318;2022-09-29T03:07:03;17.80;87.50
52739;DHT22;52466;40.122;18.318;2022-09-29T03:10:13;17.90;87.70
52739;DHT22;52466;40.122;18.318;2022-09-29T03:13:20;18.10;86.80
52739;DHT22;52466;40.122;18.318;2022-09-29T03:16:28;18.10;86.90
52739;DHT22;52466;40.122;18.318;2022-09-29T03:19:36;18.20;86.30
52739;DHT22;52466;40.122;18.318;2022-09-29T03:22:43;18.10;86.20
52739;DHT22;52466;40.122;18.318;2022-09-29T03:25:51;17.80;86.20
52739;DHT22;52466;40.122;18.318;2022-09-29T03:28:59;17.60;86.80
52739;DHT22;52466;40.122;18.318;2022-09-29T03:32:06;17.50;87.30
52739;DHT22;52466;40.122;18.318;2022-09-29T03:35:14;17.30;89.10
52739;DHT22;52466;40.122;18.318;2022-09-29T03:38:28;17.30;89.60
52739;DHT22;52466;40.122;18.318;2022-09-29T03:41:30;17.30;89.60
52739;DHT22;52466;40.122;18.318;2022-09-29T03:44:38;17.60;89.60
52739;DHT22;52466;40.122;18.318;2022-09-29T03:47:45;18.00;88.50
52739;DHT22;52466;40.122;18.318;2022-09-29T03:50:53;18.20;87.70
52739;DHT22;52466;40.122;18.318;2022-09-29T03:54:01;18.30;87.60
52739;DHT22;52466;40.122;18.318;2022-09-29T03:57:09;18.20;87.80
52739;DHT22;52466;40.122;18.318;2022-09-29T04:00:16;18.10;87.90
52739;DHT22;52466;40.122;18.318;2022-09-29T04:03:24;18.10;87.80
52739;DHT22;52466;40.122;18.318;2022-09-29T04:06:32;17.80;88.60
52739;DHT22;52466;40.122;18.318;2022-09-29T04:09:40;17.70;88.90
52739;DHT22;52466;40.122;18.318;2022-09-29T04:12:48;18.10;88.90
52739;DHT22;52466;40.122;18.318;2022-09-29T04:16:00;18.10;88.30
52739;DHT22;52466;40.122;18.318;2022-09-29T04:19:08;18.10;88.20
52739;DHT22;52466;40.122;18.318;2022-09-29T04:22:16;18.10;88.30
52739;DHT22;52466;40.122;18.318;2022-09-29T04:25:25;18.00;89.00
52739;DHT22;52466;40.122;18.318;2022-09-29T04:28:34;18.10;88.60
52739;DHT22;52466;40.122;18.318;2022-09-29T04:31:37;18.10;88.50
52739;DHT22;52466;40.122;18.318;2022-09-29T04:34:45;18.10;88.50
52739;DHT22;52466;40.122;18.318;2022-09-29T04:37:56;18.00;88.60
52739;DHT22;52466;40.122;18.318;2022-09-29T04:41:04;18.00;89.00
52739;DHT22;52466;40.122;18.318;2022-09-29T04:44:11;18.10;88.50
52739;DHT22;52466;40.122;18.318;2022-09-29T04:47:19;18.20;88.10
52739;DHT22;52466;40.122;18.318;2022-09-29T04:50:27;18.30;87.60
52739;DHT22;52466;40.122;18.318;2022-09-29T04:53:35;18.30;88.20
52739;DHT22;52466;40.122;18.318;2022-09-29T04:56:43;18.50;87.70
52739;DHT22;52466;40.122;18.318;2022-09-29T04:59:51;18.50;87.80
52739;DHT22;52466;40.122;18.318;2022-09-29T05:02:59;18.30;87.70
52739;DHT22;52466;40.122;18.318;2022-09-29T05:06:08;18.30;88.10
52739;DHT22;52466;40.122;18.318;2022-09-29T05:09:16;18.20;88.20
52739;DHT22;52466;40.122;18.318;2022-09-29T05:12:23;18.30;88.40
52739;DHT22;52466;40.122;18.318;2022-09-29T05:15:31;18.30;88.20
52739;DHT22;52466;40.122;18.318;2022-09-29T05:18:39;18.50;88.20
52739;DHT22;52466;40.122;18.318;2022-09-29T05:21:46;18.60;87.10
52739;DHT22;52466;40.122;18.318;2022-09-29T05:24:54;18.50;87.80
52739;DHT22;52466;40.122;18.318;2022-09-29T05:28:02;18.60;87.80
52739;DHT22;52466;40.122;18.318;2022-09-29T05:31:10;19.00;86.70
52739;DHT22;52466;40.122;18.318;2022-09-29T05:34:17;18.60;87.40
52739;DHT22;52466;40.122;18.318;2022-09-29T05:37:25;18.70;87.40
52739;DHT22;52466;40.122;18.318;2022-09-29T05:40:35;19.00;86.90
52739;DHT22;52466;40.122;18.318;2022-09-29T05:43:43;18.80;87.70
52739;DHT22;52466;40.122;18.318;2022-09-29T05:46:51;18.80;87.70
52739;DHT22;52466;40.122;18.318;2022-09-29T05:49:58;19.10;86.70
52739;DHT22;52466;40.122;18.318;2022-09-29T05:53:07;19.30;86.50
52739;DHT22;52466;40.122;18.318;2022-09-29T05:56:19;19.40;86.20
52739;DHT22;52466;40.122;18.318;2022-09-29T05:59:27;19.50;85.80
52739;DHT22;52466;40.122;18.318;2022-09-29T06:02:35;20.00;84.80
52739;DHT22;52466;40.122;18.318;2022-09-29T06:05:43;20.30;83.80
52739;DHT22;52466;40.122;18.318;2022-09-29T06:08:51;20.60;82.60
52739;DHT22;52466;40.122;18.318;2022-09-29T06:11:59;20.70;82.80
52739;DHT22;52466;40.122;18.318;2022-09-29T06:15:07;21.00;81.70
52739;DHT22;52466;40.122;18.318;2022-09-29T06:18:14;20.90;81.90
52739;DHT22;52466;40.122;18.318;2022-09-29T06:21:25;21.20;81.60
52739;DHT22;52466;40.122;18.318;2022-09-29T06:24:33;22.50;77.00
52739;DHT22;52466;40.122;18.318;2022-09-29T06:27:40;23.80;73.80
52739;DHT22;52466;40.122;18.318;2022-09-29T06:30:48;23.60;72.40
52739;DHT22;52466;40.122;18.318;2022-09-29T06:33:57;23.20;74.30
52739;DHT22;52466;40.122;18.318;2022-09-29T06:37:05;22.60;77.00
52739;DHT22;52466;40.122;18.318;2022-09-29T06:40:31;22.10;79.80
52739;DHT22;52466;40.122;18.318;2022-09-29T06:43:39;21.70;81.10
52739;DHT22;52466;40.122;18.318;2022-09-29T06:46:47;21.50;82.10
52739;DHT22;52466;40.122;18.318;2022-09-29T06:49:55;21.60;82.10
52739;DHT22;52466;40.122;18.318;2022-09-29T06:53:03;21.70;81.70
52739;DHT22;52466;40.122;18.318;2022-09-29T06:56:11;21.70;81.70
52739;DHT22;52466;40.122;18.318;2022-09-29T06:59:18;21.60;82.00
52739;DHT22;52466;40.122;18.318;2022-09-29T07:02:26;21.60;81.80
52739;DHT22;52466;40.122;18.318;2022-09-29T07:05:34;21.60;81.90
52739;DHT22;52466;40.122;18.318;2022-09-29T07:08:41;21.50;82.20
52739;DHT22;52466;40.122;18.318;2022-09-29T07:11:50;21.80;81.80
52739;DHT22;52466;40.122;18.318;2022-09-29T07:14:58;22.10;80.60
52739;DHT22;52466;40.122;18.318;2022-09-29T07:18:05;22.50;79.20
52739;DHT22;52466;40.122;18.318;2022-09-29T07:21:14;23.10;75.80
52739;DHT22;52466;40.122;18.318;2022-09-29T07:24:25;23.60;74.10
52739;DHT22;52466;40.122;18.318;2022-09-29T07:27:33;23.50;73.60
52739;DHT22;52466;40.122;18.318;2022-09-29T07:30:41;23.40;73.60
52739;DHT22;52466;40.122;18.318;2022-09-29T07:33:49;23.50;73.10
52739;DHT22;52466;40.122;18.318;2022-09-29T07:36:57;23.30;72.50
52739;DHT22;52466;40.122;18.318;2022-09-29T07:40:05;23.60;71.90
52739;DHT22;52466;40.122;18.318;2022-09-29T07:43:13;23.40;72.10
52739;DHT22;52466;40.122;18.318;2022-09-29T07:46:21;23.30;71.40
52739;DHT22;52466;40.122;18.318;2022-09-29T07:49:29;23.30;72.20
52739;DHT22;52466;40.122;18.318;2022-09-29T07:52:39;23.60;70.70
52739;DHT22;52466;40.122;18.318;2022-09-29T07:55:47;24.30;68.40
52739;DHT22;52466;40.122;18.318;2022-09-29T07:58:54;24.60;64.40
52739;DHT22;52466;40.122;18.318;2022-09-29T08:02:02;24.80;64.40
52739;DHT22;52466;40.122;18.318;2022-09-29T08:05:10;24.80;64.20
52739;DHT22;52466;40.122;18.318;2022-09-29T08:08:18;24.50;64.80
52739;DHT22;52466;40.122;18.318;2022-09-29T08:11:26;24.30;65.80
52739;DHT22;52466;40.122;18.318;2022-09-29T08:14:34;24.10;65.70
52739;DHT22;52466;40.122;18.318;2022-09-29T08:17:42;24.30;65.70
52739;DHT22;52466;40.122;18.318;2022-09-29T08:20:49;24.40;65.70
52739;DHT22;52466;40.122;18.318;2022-09-29T08:24:00;24.20;65.00
52739;DHT22;52466;40.122;18.318;2022-09-29T08:27:16;24.10;65.90
52739;DHT22;52466;40.122;18.318;2022-09-29T08:30:24;23.90;66.60
52739;DHT22;52466;40.122;18.318;2022-09-29T08:33:33;23.90;67.00
52739;DHT22;52466;40.122;18.318;2022-09-29T08:36:41;24.00;67.60
52739;DHT22;52466;40.122;18.318;2022-09-29T08:39:48;24.40;68.20
52739;DHT22;52466;40.122;18.318;2022-09-29T08:43:17;24.50;66.70
52739;DHT22;52466;40.122;18.318;2022-09-29T08:46:39;24.50;64.50
52739;DHT22;52466;40.122;18.318;2022-09-29T08:49:56;24.20;63.60
52739;DHT22;52466;40.122;18.318;2022-09-29T08:53:08;24.10;63.70
52739;DHT22;52466;40.122;18.318;2022-09-29T08:56:17;24.10;64.20
52739;DHT22;52466;40.122;18.318;2022-09-29T08:59:26;24.20;64.30
52739;DHT22;52466;40.122;18.318;2022-09-29T09:02:57;24.40;61.90
52739;DHT22;52466;40.122;18.318;2022-09-29T09:09:45;24.60;63.10
52739;DHT22;52466;40.122;18.318;2022-09-29T09:24:00;25.20;57.00
52739;DHT22;52466;40.122;18.318;2022-09-29T09:27:16;25.00;57.20
52739;DHT22;52466;40.122;18.318;2022-09-29T09:30:30;25.00;58.90
52739;DHT22;52466;40.122;18.318;2022-09-29T09:33:49;25.20;58.00
52739;DHT22;52466;40.122;18.318;2022-09-29T09:37:06;25.30;57.10
52739;DHT22;52466;40.122;18.318;2022-09-29T09:40:18;25.50;56.40
52739;DHT22;52466;40.122;18.318;2022-09-29T09:43:38;25.50;55.00
52739;DHT22;52466;40.122;18.318;2022-09-29T09:50:18;25.80;54.00
52739;DHT22;52466;40.122;18.318;2022-09-29T09:53:39;26.30;53.30
52739;DHT22;52466;40.122;18.318;2022-09-29T09:57:09;26.20;50.20
52739;DHT22;52466;40.122;18.318;2022-09-29T10:00:29;26.00;53.20
52739;DHT22;52466;40.122;18.318;2022-09-29T10:03:38;26.50;52.80
52739;DHT22;52466;40.122;18.318;2022-09-29T10:06:45;26.00;52.40
52739;DHT22;52466;40.122;18.318;2022-09-29T10:09:55;26.10;52.10
52739;DHT22;52466;40.122;18.318;2022-09-29T10:13:05;26.40;52.40
52739;DHT22;52466;40.122;18.318;2022-09-29T10:16:26;26.00;52.10
52739;DHT22;52466;40.122;18.318;2022-09-29T10:20:07;25.60;52.70
52739;DHT22;52466;40.122;18.318;2022-09-29T10:26:41;25.50;54.30
52739;DHT22;52466;40.122;18.318;2022-09-29T10:29:49;26.00;54.50
52739;DHT22;52466;40.122;18.318;2022-09-29T10:33:01;26.10;54.00
52739;DHT22;52466;40.122;18.318;2022-09-29T10:36:10;26.60;53.20
52739;DHT22;52466;40.122;18.318;2022-09-29T10:39:45;26.90;54.40
52739;DHT22;52466;40.122;18.318;2022-09-29T10:42:55;26.60;57.00
52739;DHT22;52466;40.122;18.318;2022-09-29T10:46:04;26.50;53.40
52739;DHT22;52466;40.122;18.318;2022-09-29T10:49:18;26.20;58.10
52739;DHT22;52466;40.122;18.318;2022-09-29T10:52:26;26.10;58.00
52739;DHT22;52466;40.122;18.318;2022-09-29T10:55:35;26.00;56.60
52739;DHT22;52466;40.122;18.318;2022-09-29T10:59:01;26.10;54.50
52739;DHT22;52466;40.122;18.318;2022-09-29T11:02:36;26.00;53.70
52739;DHT22;52466;40.122;18.318;2022-09-29T11:05:53;25.90;53.90
52739;DHT22;52466;40.122;18.318;2022-09-29T11:15:40;26.20;54.60
52739;DHT22;52466;40.122;18.318;2022-09-29T11:18:50;26.30;54.80
52739;DHT22;52466;40.122;18.318;2022-09-29T11:47:37;26.30;52.00
52739;DHT22;52466;40.122;18.318;2022-09-29T11:54:44;26.60;48.40
52739;DHT22;52466;40.122;18.318;2022-09-29T11:58:23;26.90;46.40
52739;DHT22;52466;40.122;18.318;2022-09-29T12:15:46;26.20;50.60
52739;DHT22;52466;40.122;18.318;2022-09-29T12:19:07;26.20;50.40
52739;DHT22;52466;40.122;18.318;2022-09-29T12:22:18;26.00;51.50
52739;DHT22;52466;40.122;18.318;2022-09-29T12:25:29;26.00;51.50
52739;DHT22;52466;40.122;18.318;2022-09-29T12:29:00;26.00;52.50
52739;DHT22;52466;40.122;18.318;2022-09-29T12:32:17;26.30;51.70
52739;DHT22;52466;40.122;18.318;2022-09-29T12:35:38;26.10;51.80
52739;DHT22;52466;40.122;18.318;2022-09-29T12:38:50;26.30;51.70
52739;DHT22;52466;40.122;18.318;2022-09-29T12:52:25;26.00;52.10
52739;DHT22;52466;40.122;18.318;2022-09-29T12:55:53;26.10;51.30
52739;DHT22;52466;40.122;18.318;2022-09-29T13:09:20;26.10;50.30
52739;DHT22;52466;40.122;18.318;2022-09-29T13:12:55;26.20;48.60
52739;DHT22;52466;40.122;18.318;2022-09-29T13:23:38;26.40;48.80
52739;DHT22;52466;40.122;18.318;2022-09-29T13:30:27;26.50;48.50
52739;DHT22;52466;40.122;18.318;2022-09-29T13:33:35;26.30;48.50
52739;DHT22;52466;40.122;18.318;2022-09-29T13:36:43;26.30;48.50
52739;DHT22;52466;40.122;18.318;2022-09-29T13:40:06;26.20;49.50
52739;DHT22;52466;40.122;18.318;2022-09-29T13:47:30;26.00;50.60
52739;DHT22;52466;40.122;18.318;2022-09-29T13:50:46;26.00;51.10
52739;DHT22;52466;40.122;18.318;2022-09-29T13:54:19;25.90;51.80
52739;DHT22;52466;40.122;18.318;2022-09-29T13:57:27;25.80;52.60
52739;DHT22;52466;40.122;18.318;2022-09-29T14:00:41;25.60;52.20
52739;DHT22;52466;40.122;18.318;2022-09-29T14:03:49;25.80;51.00
52739;DHT22;52466;40.122;18.318;2022-09-29T14:06:59;25.80;51.30
52739;DHT22;52466;40.122;18.318;2022-09-29T14:13:39;25.60;53.20
52739;DHT22;52466;40.122;18.318;2022-09-29T14:17:08;25.50;53.90
52739;DHT22;52466;40.122;18.318;2022-09-29T14:20:23;25.50;53.40
52739;DHT22;52466;40.122;18.318;2022-09-29T14:24:01;25.60;54.30
52739;DHT22;52466;40.122;18.318;2022-09-29T14:27:31;25.50;54.50
52739;DHT22;52466;40.122;18.318;2022-09-29T14:30:40;25.30;55.20
52739;DHT22;52466;40.122;18.318;2022-09-29T14:33:50;25.20;56.20
52739;DHT22;52466;40.122;18.318;2022-09-29T14:37:00;25.20;56.30
52739;DHT22;52466;40.122;18.318;2022-09-29T14:40:08;25.20;56.80
52739;DHT22;52466;40.122;18.318;2022-09-29T15:01:52;24.80;55.90
52739;DHT22;52466;40.122;18.318;2022-09-29T15:05:29;24.80;57.40
52739;DHT22;52466;40.122;18.318;2022-09-29T15:08:38;24.80;58.00
52739;DHT22;52466;40.122;18.318;2022-09-29T15:11:54;24.80;57.40
52739;DHT22;52466;40.122;18.318;2022-09-29T15:15:31;24.60;57.70
52739;DHT22;52466;40.122;18.318;2022-09-29T15:18:53;24.60;57.60
52739;DHT22;52466;40.122;18.318;2022-09-29T15:25:33;24.40;58.20
52739;DHT22;52466;40.122;18.318;2022-09-29T15:28:42;24.50;58.60
52739;DHT22;52466;40.122;18.318;2022-09-29T15:31:51;24.40;58.50
52739;DHT22;52466;40.122;18.318;2022-09-29T15:35:02;24.40;59.50
52739;DHT22;52466;40.122;18.318;2022-09-29T15:38:37;24.30;59.60
52739;DHT22;52466;40.122;18.318;2022-09-29T15:41:46;24.30;59.00
52739;DHT22;52466;40.122;18.318;2022-09-29T15:44:59;24.20;59.00
52739;DHT22;52466;40.122;18.318;2022-09-29T15:48:10;24.10;58.30
52739;DHT22;52466;40.122;18.318;2022-09-29T15:51:20;24.00;58.70
52739;DHT22;52466;40.122;18.318;2022-09-29T15:54:34;23.90;59.10
52739;DHT22;52466;40.122;18.318;2022-09-29T15:57:48;23.90;59.30
52739;DHT22;52466;40.122;18.318;2022-09-29T16:01:05;23.90;60.80
52739;DHT22;52466;40.122;18.318;2022-09-29T16:04:25;23.70;62.80
52739;DHT22;52466;40.122;18.318;2022-09-29T16:07:47;23.60;63.40
52739;DHT22;52466;40.122;18.318;2022-09-29T16:10:58;23.60;64.30
52739;DHT22;52466;40.122;18.318;2022-09-29T16:14:07;23.50;64.90
52739;DHT22;52466;40.122;18.318;2022-09-29T16:17:15;23.50;65.70
52739;DHT22;52466;40.122;18.318;2022-09-29T16:20:27;23.40;66.50
52739;DHT22;52466;40.122;18.318;2022-09-29T16:26:53;23.20;68.00
52739;DHT22;52466;40.122;18.318;2022-09-29T16:30:18;23.10;69.60
52739;DHT22;52466;40.122;18.318;2022-09-29T16:33:26;23.10;70.20
52739;DHT22;52466;40.122;18.318;2022-09-29T16:36:34;23.00;70.90
52739;DHT22;52466;40.122;18.318;2022-09-29T16:39:47;22.90;71.30
52739;DHT22;52466;40.122;18.318;2022-09-29T16:42:55;22.80;71.70
52739;DHT22;52466;40.122;18.318;2022-09-29T16:46:13;22.70;72.20
52739;DHT22;52466;40.122;18.318;2022-09-29T16:49:32;22.70;72.10
52739;DHT22;52466;40.122;18.318;2022-09-29T16:52:49;22.70;72.10
52739;DHT22;52466;40.122;18.318;2022-09-29T16:55:59;22.60;72.50
52739;DHT22;52466;40.122;18.318;2022-09-29T16:59:12;22.50;72.80
52739;DHT22;52466;40.122;18.318;2022-09-29T17:02:23;22.50;72.90
52739;DHT22;52466;40.122;18.318;2022-09-29T17:05:37;22.50;73.20
52739;DHT22;52466;40.122;18.318;2022-09-29T17:08:46;22.50;73.40
52739;DHT22;52466;40.122;18.318;2022-09-29T17:11:54;22.50;73.60
52739;DHT22;52466;40.122;18.318;2022-09-29T17:15:02;22.40;73.80
52739;DHT22;52466;40.122;18.318;2022-09-29T17:18:12;22.30;74.20
52739;DHT22;52466;40.122;18.318;2022-09-29T17:21:19;22.40;74.00
52739;DHT22;52466;40.122;18.318;2022-09-29T17:24:27;22.40;74.20
52739;DHT22;52466;40.122;18.318;2022-09-29T17:27:36;22.20;74.70
52739;DHT22;52466;40.122;18.318;2022-09-29T17:31:03;22.30;74.80
52739;DHT22;52466;40.122;18.318;2022-09-29T17:34:13;22.20;74.80
52739;DHT22;52466;40.122;18.318;2022-09-29T17:37:21;22.20;74.80
52739;DHT22;52466;40.122;18.318;2022-09-29T17:43:45;22.10;75.30
52739;DHT22;52466;40.122;18.318;2022-09-29T17:46:53;22.10;75.40
52739;DHT22;52466;40.122;18.318;2022-09-29T17:50:18;22.10;75.50
52739;DHT22;52466;40.122;18.318;2022-09-29T17:53:28;22.00;75.70
52739;DHT22;52466;40.122;18.318;2022-09-29T17:56:40;21.90;76.20
52739;DHT22;52466;40.122;18.318;2022-09-29T17:59:48;22.00;76.20
52739;DHT22;52466;40.122;18.318;2022-09-29T18:02:56;21.90;76.30
52739;DHT22;52466;40.122;18.318;2022-09-29T18:06:05;22.00;76.40
52739;DHT22;52466;40.122;18.318;2022-09-29T18:09:17;21.90;76.40
52739;DHT22;52466;40.122;18.318;2022-09-29T18:12:25;22.00;76.50
52739;DHT22;52466;40.122;18.318;2022-09-29T18:15:33;21.90;76.80
52739;DHT22;52466;40.122;18.318;2022-09-29T18:18:41;21.90;76.80
52739;DHT22;52466;40.122;18.318;2022-09-29T18:21:49;21.80;76.90
52739;DHT22;52466;40.122;18.318;2022-09-29T18:24:57;21.90;76.90
52739;DHT22;52466;40.122;18.318;2022-09-29T18:28:04;21.90;76.90
52739;DHT22;52466;40.122;18.318;2022-09-29T18:31:38;21.80;77.10
52739;DHT22;52466;40.122;18.318;2022-09-29T18:34:46;21.80;77.40
52739;DHT22;52466;40.122;18.318;2022-09-29T18:37:53;21.70;77.60
52739;DHT22;52466;40.122;18.318;2022-09-29T18:41:01;21.70;77.60
52739;DHT22;52466;40.122;18.318;2022-09-29T18:44:14;21.80;77.50
52739;DHT22;52466;40.122;18.318;2022-09-29T18:47:23;21.80;77.30
52739;DHT22;52466;40.122;18.318;2022-09-29T18:50:35;21.70;77.40
52739;DHT22;52466;40.122;18.318;2022-09-29T18:53:45;21.80;77.30
52739;DHT22;52466;40.122;18.318;2022-09-29T18:56:53;21.70;77.50
52739;DHT22;52466;40.122;18.318;2022-09-29T19:00:01;21.70;77.50
52739;DHT22;52466;40.122;18.318;2022-09-29T19:03:09;21.70;77.60
52739;DHT22;52466;40.122;18.318;2022-09-29T19:06:17;21.80;77.70
52739;DHT22;52466;40.122;18.318;2022-09-29T19:09:25;21.60;78.10
52739;DHT22;52466;40.122;18.318;2022-09-29T19:12:33;21.70;78.20
52739;DHT22;52466;40.122;18.318;2022-09-29T19:15:41;21.70;78.40
52739;DHT22;52466;40.122;18.318;2022-09-29T19:18:50;21.70;78.50
52739;DHT22;52466;40.122;18.318;2022-09-29T19:21:58;21.70;79.00
52739;DHT22;52466;40.122;18.318;2022-09-29T19:25:06;21.60;79.20
52739;DHT22;52466;40.122;18.318;2022-09-29T19:28:47;21.60;79.40
52739;DHT22;52466;40.122;18.318;2022-09-29T19:31:54;21.50;79.70
52739;DHT22;52466;40.122;18.318;2022-09-29T19:35:03;21.60;79.80
52739;DHT22;52466;40.122;18.318;2022-09-29T19:38:11;21.50;80.00
52739;DHT22;52466;40.122;18.318;2022-09-29T19:41:21;21.50;80.20
52739;DHT22;52466;40.122;18.318;2022-09-29T19:44:29;21.50;80.20
52739;DHT22;52466;40.122;18.318;2022-09-29T19:47:38;21.50;80.40
52739;DHT22;52466;40.122;18.318;2022-09-29T19:50:46;21.40;80.60
52739;DHT22;52466;40.122;18.318;2022-09-29T19:54:12;21.50;80.50
52739;DHT22;52466;40.122;18.318;2022-09-29T19:57:22;21.50;80.60
52739;DHT22;52466;40.122;18.318;2022-09-29T20:00:30;21.40;80.80
52739;DHT22;52466;40.122;18.318;2022-09-29T20:03:38;21.30;80.90
52739;DHT22;52466;40.122;18.318;2022-09-29T20:06:46;21.30;81.10
52739;DHT22;52466;40.122;18.318;2022-09-29T20:09:53;21.30;81.10
52739;DHT22;52466;40.122;18.318;2022-09-29T20:13:01;21.20;81.20
52739;DHT22;52466;40.122;18.318;2022-09-29T20:16:09;21.30;81.40
52739;DHT22;52466;40.122;18.318;2022-09-29T20:19:18;21.20;81.40
52739;DHT22;52466;40.122;18.318;2022-09-29T20:22:27;21.20;81.50
52739;DHT22;52466;40.122;18.318;2022-09-29T20:25:37;21.10;81.60
52739;DHT22;52466;40.122;18.318;2022-09-29T20:28:47;21.20;81.60
52739;DHT22;52466;40.122;18.318;2022-09-29T20:31:55;21.10;81.70
52739;DHT22;52466;40.122;18.318;2022-09-29T20:35:04;21.10;81.90
52739;DHT22;52466;40.122;18.318;2022-09-29T20:38:11;21.00;82.40
52739;DHT22;52466;40.122;18.318;2022-09-29T20:41:20;20.90;83.00
52739;DHT22;52466;40.122;18.318;2022-09-29T20:44:27;21.00;82.40
52739;DHT22;52466;40.122;18.318;2022-09-29T20:47:35;21.00;82.50
52739;DHT22;52466;40.122;18.318;2022-09-29T20:50:38;20.80;83.10
52739;DHT22;52466;40.122;18.318;2022-09-29T20:53:53;20.90;83.10
52739;DHT22;52466;40.122;18.318;2022-09-29T20:57:02;20.90;83.20
52739;DHT22;52466;40.122;18.318;2022-09-29T21:00:10;20.90;83.30
52739;DHT22;52466;40.122;18.318;2022-09-29T21:03:20;20.90;83.40
52739;DHT22;52466;40.122;18.318;2022-09-29T21:06:31;20.80;83.70
52739;DHT22;52466;40.122;18.318;2022-09-29T21:09:38;20.80;84.20
52739;DHT22;52466;40.122;18.318;2022-09-29T21:12:46;20.90;84.80
52739;DHT22;52466;40.122;18.318;2022-09-29T21:15:55;20.90;85.10
52739;DHT22;52466;40.122;18.318;2022-09-29T21:19:04;21.00;85.60
52739;DHT22;52466;40.122;18.318;2022-09-29T21:22:22;21.00;85.80
52739;DHT22;52466;40.122;18.318;2022-09-29T21:25:33;21.00;86.20
52739;DHT22;52466;40.122;18.318;2022-09-29T21:28:56;21.00;86.20
52739;DHT22;52466;40.122;18.318;2022-09-29T21:32:10;20.90;86.40
52739;DHT22;52466;40.122;18.318;2022-09-29T21:35:17;20.90;86.50
52739;DHT22;52466;40.122;18.318;2022-09-29T21:38:36;20.90;86.60
52739;DHT22;52466;40.122;18.318;2022-09-29T21:41:52;20.80;86.80
52739;DHT22;52466;40.122;18.318;2022-09-29T21:45:20;20.80;86.90
52739;DHT22;52466;40.122;18.318;2022-09-29T21:48:28;20.90;87.40
52739;DHT22;52466;40.122;18.318;2022-09-29T21:51:48;20.80;87.50
52739;DHT22;52466;40.122;18.318;2022-09-29T21:55:05;20.90;87.50
52739;DHT22;52466;40.122;18.318;2022-09-29T21:58:23;21.00;87.70
52739;DHT22;52466;40.122;18.318;2022-09-29T22:01:33;20.90;87.70
52739;DHT22;52466;40.122;18.318;2022-09-29T22:04:50;20.80;88.00
52739;DHT22;52466;40.122;18.318;2022-09-29T22:08:21;20.80;88.40
52739;DHT22;52466;40.122;18.318;2022-09-29T22:11:36;20.80;88.20
52739;DHT22;52466;40.122;18.318;2022-09-29T22:14:53;20.80;88.10
52739;DHT22;52466;40.122;18.318;2022-09-29T22:18:06;20.70;88.40
52739;DHT22;52466;40.122;18.318;2022-09-29T22:21:16;20.60;88.40
52739;DHT22;52466;40.122;18.318;2022-09-29T22:24:45;20.60;88.40
52739;DHT22;52466;40.122;18.318;2022-09-29T22:28:02;20.70;88.50
52739;DHT22;52466;40.122;18.318;2022-09-29T22:31:14;20.60;88.50
52739;DHT22;52466;40.122;18.318;2022-09-29T22:34:27;20.60;88.80
52739;DHT22;52466;40.122;18.318;2022-09-29T22:37:40;20.70;88.70
52739;DHT22;52466;40.122;18.318;2022-09-29T22:40:55;20.80;88.80
52739;DHT22;52466;40.122;18.318;2022-09-29T22:44:05;20.80;88.80
52739;DHT22;52466;40.122;18.318;2022-09-29T22:47:14;20.80;88.90
52739;DHT22;52466;40.122;18.318;2022-09-29T22:50:31;20.80;89.00